Wetterdaten: Woche 30.03.26 - 05.04.26 (KW14)
Datum Zeit Temp. A. Feuchte A. Luftdruck Niederschlag Windgeschw. Windrichtung Sonnenschein Taupunkt Windchill Windböen
30.03.2026 00:00 6,1 °C 41 % 1021,2 hPa 0,0 l/m² 3,2 km/h (1 Bft) O-NO 0,00 h -6,1 °C 6,1 °C 4,2 km/h (1 Bft)
30.03.2026 01:00 5,7 °C 41 % 1020,6 hPa 0,0 l/m² 2,0 km/h (1 Bft) W 0,00 h -6,3 °C 5,7 °C 3,1 km/h (1 Bft)
30.03.2026 02:00 5,3 °C 42 % 1019,8 hPa 0,0 l/m² 2,1 km/h (1 Bft) W-SW 0,00 h -6,4 °C 5,3 °C 3,6 km/h (1 Bft)
30.03.2026 03:00 5,3 °C 43 % 1019,1 hPa 0,0 l/m² 1,8 km/h (1 Bft) S 0,00 h -6,3 °C 5,3 °C 3,2 km/h (1 Bft)
30.03.2026 04:00 5,3 °C 43 % 1018,4 hPa 0,0 l/m² 1,3 km/h (1 Bft) O-SO 0,00 h -6,2 °C 5,3 °C 2,1 km/h (1 Bft)
30.03.2026 05:00 5,0 °C 43 % 1017,6 hPa 0,0 l/m² 0,8 km/h (0 Bft) W-NW 0,00 h -6,5 °C 5,0 °C 1,4 km/h (1 Bft)
30.03.2026 06:00 5,0 °C 43 % 1017,5 hPa 0,0 l/m² 0,9 km/h (0 Bft) N-NO 0,00 h -6,6 °C 5,0 °C 2,4 km/h (1 Bft)
30.03.2026 07:00 5,2 °C 42 % 1017,6 hPa 0,0 l/m² 1,0 km/h (0 Bft) W-SW 0,00 h -6,6 °C 5,2 °C 1,4 km/h (1 Bft)
30.03.2026 08:00 5,6 °C 41 % 1017,3 hPa 0,0 l/m² 1,0 km/h (0 Bft) NW 0,00 h -6,6 °C 5,6 °C 1,9 km/h (1 Bft)
30.03.2026 09:00 6,2 °C 40 % 1016,9 hPa 0,0 l/m² 1,1 km/h (1 Bft) O-SO 0,00 h -6,4 °C 6,2 °C 1,6 km/h (1 Bft)
30.03.2026 10:00 7,2 °C 39 % 1016,6 hPa 0,0 l/m² 1,2 km/h (1 Bft) NW 0,00 h -5,9 °C 7,2 °C 2,0 km/h (1 Bft)
30.03.2026 11:00 8,4 °C 34 % 1015,8 hPa 0,0 l/m² 3,8 km/h (1 Bft) NW 0,00 h -6,4 °C 8,3 °C 6,1 km/h (2 Bft)
30.03.2026 12:00 10,1 °C 32 % 1014,8 hPa 0,0 l/m² 4,5 km/h (1 Bft) SO 0,00 h -5,7 °C 10,0 °C 6,2 km/h (2 Bft)
30.03.2026 13:00 10,1 °C 30 % 1014,7 hPa 0,0 l/m² 5,6 km/h (1 Bft) NW 0,13 h -6,6 °C 9,8 °C 7,8 km/h (2 Bft)
30.03.2026 14:00 8,6 °C 31 % 1014,4 hPa 0,0 l/m² 4,7 km/h (1 Bft) W 0,00 h -7,4 °C 8,3 °C 5,9 km/h (2 Bft)
30.03.2026 15:00 8,0 °C 33 % 1014,0 hPa 0,0 l/m² 3,6 km/h (1 Bft) W 0,00 h -7,4 °C 7,9 °C 4,8 km/h (1 Bft)
30.03.2026 16:00 8,8 °C 34 % 1012,6 hPa 0,0 l/m² 2,9 km/h (1 Bft) NO 0,23 h -6,1 °C 8,8 °C 3,8 km/h (1 Bft)
30.03.2026 17:00 8,8 °C 34 % 1012,6 hPa 0,0 l/m² 3,6 km/h (1 Bft) W-NW 0,00 h -6,3 °C 8,8 °C 4,8 km/h (1 Bft)
30.03.2026 18:00 7,6 °C 35 % 1012,9 hPa 0,0 l/m² 2,0 km/h (1 Bft) O-SO 0,00 h -6,9 °C 7,6 °C 2,5 km/h (1 Bft)
30.03.2026 19:00 6,4 °C 36 % 1012,6 hPa 0,0 l/m² 1,6 km/h (1 Bft) NW 0,00 h -7,6 °C 6,4 °C 2,5 km/h (1 Bft)
30.03.2026 20:00 6,1 °C 37 % 1013,2 hPa 0,0 l/m² 2,4 km/h (1 Bft) N-NO 0,00 h -7,6 °C 6,1 °C 3,6 km/h (1 Bft)
30.03.2026 21:00 5,8 °C 37 % 1013,3 hPa 0,0 l/m² 2,7 km/h (1 Bft) NW 0,00 h -7,8 °C 5,8 °C 3,8 km/h (1 Bft)
30.03.2026 22:00 5,7 °C 37 % 1013,3 hPa 0,0 l/m² 2,3 km/h (1 Bft) W-NW 0,00 h -7,9 °C 5,7 °C 3,6 km/h (1 Bft)
30.03.2026 23:00 5,7 °C 37 % 1013,1 hPa 0,0 l/m² 3,2 km/h (1 Bft) NW 0,00 h -7,7 °C 5,7 °C 3,9 km/h (1 Bft)
31.03.2026 00:00 5,4 °C 38 % 1013,2 hPa 0,0 l/m² 2,6 km/h (1 Bft) NW 0,00 h -7,7 °C 5,4 °C 4,3 km/h (1 Bft)
31.03.2026 01:00 5,2 °C 39 % 1013,0 hPa 0,0 l/m² 3,7 km/h (1 Bft) N-NW 0,00 h -7,5 °C 5,1 °C 4,8 km/h (1 Bft)
31.03.2026 02:00 4,9 °C 41 % 1013,0 hPa 0,0 l/m² 3,8 km/h (1 Bft) NW 0,00 h -7,3 °C 4,9 °C 5,6 km/h (1 Bft)
31.03.2026 03:00 4,9 °C 43 % 1012,9 hPa 0,0 l/m² 3,9 km/h (1 Bft) N-NO 0,00 h -6,7 °C 4,9 °C 5,0 km/h (1 Bft)
31.03.2026 04:00 4,6 °C 45 % 1013,2 hPa 0,0 l/m² 3,7 km/h (1 Bft) NW 0,00 h -6,2 °C 4,6 °C 5,5 km/h (1 Bft)
31.03.2026 05:00 3,9 °C 50 % 1013,5 hPa 0,0 l/m² 2,5 km/h (1 Bft) W 0,00 h -5,6 °C 3,9 °C 3,3 km/h (1 Bft)
31.03.2026 06:00 3,6 °C 52 % 1013,8 hPa 0,0 l/m² 3,0 km/h (1 Bft) O-NO 0,00 h -5,3 °C 3,6 °C 6,5 km/h (2 Bft)
31.03.2026 07:00 3,6 °C 53 % 1014,8 hPa 0,0 l/m² 3,5 km/h (1 Bft) N-NW 0,00 h -5,0 °C 3,5 °C 5,7 km/h (1 Bft)
31.03.2026 08:00 3,5 °C 56 % 1016,2 hPa 0,0 l/m² 3,6 km/h (1 Bft) W-SW 0,00 h -4,5 °C 3,5 °C 4,8 km/h (1 Bft)
31.03.2026 09:00 3,8 °C 57 % 1016,7 hPa 0,0 l/m² 4,3 km/h (1 Bft) N-NO 0,00 h -3,8 °C 3,5 °C 6,7 km/h (2 Bft)
31.03.2026 10:00 4,5 °C 58 % 1017,0 hPa 0,0 l/m² 4,7 km/h (1 Bft) O-NO 0,00 h -3,1 °C 3,9 °C 6,8 km/h (2 Bft)
31.03.2026 11:00 5,7 °C 54 % 1017,5 hPa 0,0 l/m² 4,9 km/h (1 Bft) NW 0,00 h -2,8 °C 5,0 °C 7,8 km/h (2 Bft)
31.03.2026 12:00 6,1 °C 51 % 1017,9 hPa 0,0 l/m² 4,9 km/h (1 Bft) W 0,00 h -3,2 °C 5,6 °C 7,7 km/h (2 Bft)
31.03.2026 13:00 7,2 °C 48 % 1018,1 hPa 0,0 l/m² 5,4 km/h (1 Bft) NW 0,27 h -3,0 °C 6,4 °C 7,0 km/h (2 Bft)
31.03.2026 14:00 7,5 °C 45 % 1017,7 hPa 0,0 l/m² 5,3 km/h (1 Bft) NW 0,20 h -3,7 °C 6,8 °C 7,4 km/h (2 Bft)
31.03.2026 15:00 7,9 °C 43 % 1018,5 hPa 0,0 l/m² 4,6 km/h (1 Bft) W-SW 0,20 h -4,0 °C 7,6 °C 6,8 km/h (2 Bft)
31.03.2026 16:00 6,9 °C 44 % 1018,9 hPa 0,0 l/m² 3,9 km/h (1 Bft) NW 0,00 h -4,4 °C 6,8 °C 5,6 km/h (1 Bft)
31.03.2026 17:00 6,2 °C 46 % 1019,5 hPa 0,0 l/m² 4,0 km/h (1 Bft) W-SW 0,00 h -4,7 °C 6,2 °C 5,7 km/h (1 Bft)
31.03.2026 18:00 5,1 °C 48 % 1020,0 hPa 0,0 l/m² 2,7 km/h (1 Bft) NW 0,00 h -4,9 °C 5,1 °C 4,0 km/h (1 Bft)
31.03.2026 19:00 5,2 °C 47 % 1020,7 hPa 0,0 l/m² 2,5 km/h (1 Bft) W-NW 0,00 h -5,2 °C 5,2 °C 4,2 km/h (1 Bft)
31.03.2026 20:00 5,5 °C 43 % 1021,3 hPa 0,0 l/m² 3,2 km/h (1 Bft) W-SW 0,00 h -5,9 °C 5,5 °C 4,8 km/h (1 Bft)
31.03.2026 21:00 5,6 °C 41 % 1021,8 hPa 0,0 l/m² 3,2 km/h (1 Bft) W 0,00 h -6,7 °C 5,6 °C 4,2 km/h (1 Bft)
31.03.2026 22:00 5,6 °C 39 % 1022,4 hPa 0,0 l/m² 3,7 km/h (1 Bft) W-SW 0,00 h -7,3 °C 5,6 °C 4,8 km/h (1 Bft)
31.03.2026 23:00 5,6 °C 38 % 1022,3 hPa 0,0 l/m² 2,6 km/h (1 Bft) W-NW 0,00 h -7,5 °C 5,6 °C 3,3 km/h (1 Bft)
01.04.2026 00:00 5,5 °C 39 % 1022,0 hPa 0,0 l/m² 2,9 km/h (1 Bft) W-NW 0,00 h -7,3 °C 5,5 °C 4,8 km/h (1 Bft)
01.04.2026 01:00 5,5 °C 40 % 1021,7 hPa 0,0 l/m² 3,5 km/h (1 Bft) W 0,00 h -7,0 °C 5,5 °C 6,6 km/h (2 Bft)
01.04.2026 02:00 5,4 °C 41 % 1021,9 hPa 0,0 l/m² 3,4 km/h (1 Bft) NW 0,00 h -6,8 °C 5,4 °C 4,9 km/h (1 Bft)
01.04.2026 03:00 5,2 °C 41 % 1021,3 hPa 0,0 l/m² 3,0 km/h (1 Bft) W-SW 0,00 h -6,8 °C 5,2 °C 3,9 km/h (1 Bft)
01.04.2026 04:00 5,0 °C 43 % 1021,1 hPa 0,0 l/m² 3,0 km/h (1 Bft) W 0,00 h -6,5 °C 5,0 °C 4,5 km/h (1 Bft)
01.04.2026 05:00 4,9 °C 44 % 1020,9 hPa 0,0 l/m² 2,6 km/h (1 Bft) W-SW 0,00 h -6,4 °C 4,9 °C 3,6 km/h (1 Bft)
01.04.2026 06:00 4,8 °C 44 % 1021,1 hPa 0,0 l/m² 2,2 km/h (1 Bft) N-NW 0,00 h -6,4 °C 4,8 °C 3,6 km/h (1 Bft)
01.04.2026 07:00 4,8 °C 45 % 1021,6 hPa 0,0 l/m² 3,1 km/h (1 Bft) W 0,00 h -6,1 °C 4,8 °C 4,6 km/h (1 Bft)
01.04.2026 08:00 5,4 °C 45 % 1022,1 hPa 0,0 l/m² 2,7 km/h (1 Bft) W 0,00 h -5,5 °C 5,4 °C 4,2 km/h (1 Bft)
01.04.2026 09:00 6,4 °C 44 % 1022,6 hPa 0,0 l/m² 2,4 km/h (1 Bft) W 0,00 h -5,0 °C 6,4 °C 3,6 km/h (1 Bft)
01.04.2026 10:00 7,3 °C 41 % 1022,7 hPa 0,0 l/m² 2,6 km/h (1 Bft) W-NW 0,00 h -5,2 °C 7,3 °C 3,7 km/h (1 Bft)
01.04.2026 11:00 7,7 °C 40 % 1022,5 hPa 0,0 l/m² 3,2 km/h (1 Bft) W-SW 0,00 h -5,2 °C 7,7 °C 5,3 km/h (1 Bft)
01.04.2026 12:00 8,4 °C 39 % 1021,5 hPa 0,0 l/m² 3,5 km/h (1 Bft) SW 0,07 h -4,7 °C 8,4 °C 5,4 km/h (1 Bft)
01.04.2026 13:00 9,7 °C 37 % 1021,1 hPa 0,0 l/m² 3,4 km/h (1 Bft) W 0,60 h -4,4 °C 9,7 °C 5,2 km/h (1 Bft)
01.04.2026 14:00 10,3 °C 35 % 1020,2 hPa 0,0 l/m² 3,2 km/h (1 Bft) W 1,00 h -4,3 °C 10,3 °C 4,7 km/h (1 Bft)
01.04.2026 15:00 11,1 °C 34 % 1019,0 hPa 0,0 l/m² 3,6 km/h (1 Bft) O 1,00 h -4,0 °C 11,1 °C 5,4 km/h (1 Bft)
01.04.2026 16:00 11,0 °C 33 % 1018,4 hPa 0,0 l/m² 3,0 km/h (1 Bft) W 0,87 h -4,7 °C 11,0 °C 4,7 km/h (1 Bft)
01.04.2026 17:00 10,6 °C 32 % 1018,0 hPa 0,0 l/m² 1,9 km/h (1 Bft) W-SW 0,30 h -5,5 °C 10,6 °C 3,3 km/h (1 Bft)
01.04.2026 18:00 10,0 °C 31 % 1017,7 hPa 0,0 l/m² 1,6 km/h (1 Bft) SW 0,00 h -6,3 °C 10,0 °C 2,4 km/h (1 Bft)
01.04.2026 19:00 9,6 °C 31 % 1017,3 hPa 0,0 l/m² 1,4 km/h (1 Bft) SW 0,00 h -6,6 °C 9,6 °C 1,9 km/h (1 Bft)
01.04.2026 20:00 9,1 °C 32 % 1017,9 hPa 0,0 l/m² 0,7 km/h (0 Bft) SW 0,00 h -6,7 °C 9,1 °C 1,4 km/h (1 Bft)
01.04.2026 21:00 8,1 °C 33 % 1018,1 hPa 0,0 l/m² 1,0 km/h (0 Bft) W-SW 0,00 h -7,1 °C 8,1 °C 1,8 km/h (1 Bft)
01.04.2026 22:00 7,5 °C 36 % 1018,2 hPa 0,0 l/m² 0,9 km/h (0 Bft) O 0,00 h -6,4 °C 7,5 °C 1,3 km/h (1 Bft)
01.04.2026 23:00 7,0 °C 40 % 1017,7 hPa 0,0 l/m² 1,6 km/h (1 Bft) S 0,00 h -5,8 °C 7,0 °C 2,8 km/h (1 Bft)
02.04.2026 00:00 6,7 °C 42 % 1017,0 hPa 0,0 l/m² 2,6 km/h (1 Bft) W-SW 0,00 h -5,4 °C 6,7 °C 4,0 km/h (1 Bft)
02.04.2026 01:00 6,5 °C 43 % 1016,1 hPa 0,0 l/m² 2,4 km/h (1 Bft) W-SW 0,00 h -5,2 °C 6,5 °C 4,1 km/h (1 Bft)
02.04.2026 02:00 6,3 °C 44 % 1015,2 hPa 0,0 l/m² 3,3 km/h (1 Bft) W-SW 0,00 h -5,0 °C 6,3 °C 4,9 km/h (1 Bft)
02.04.2026 03:00 6,1 °C 45 % 1014,6 hPa 0,0 l/m² 3,3 km/h (1 Bft) W-NW 0,00 h -4,9 °C 6,1 °C 6,2 km/h (2 Bft)
02.04.2026 04:00 5,8 °C 46 % 1013,7 hPa 0,0 l/m² 3,5 km/h (1 Bft) S 0,00 h -4,9 °C 5,8 °C 4,5 km/h (1 Bft)
02.04.2026 05:00 5,6 °C 47 % 1012,6 hPa 0,0 l/m² 3,8 km/h (1 Bft) NW 0,00 h -4,8 °C 5,6 °C 5,1 km/h (1 Bft)
02.04.2026 06:00 5,4 °C 47 % 1012,2 hPa 0,0 l/m² 4,1 km/h (1 Bft) NW 0,00 h -5,0 °C 5,2 °C 5,3 km/h (1 Bft)
02.04.2026 07:00 5,4 °C 47 % 1012,8 hPa 0,0 l/m² 4,1 km/h (1 Bft) W 0,00 h -5,0 °C 5,4 °C 5,7 km/h (1 Bft)
02.04.2026 08:00 5,6 °C 47 % 1012,9 hPa 0,0 l/m² 4,3 km/h (1 Bft) W-NW 0,00 h -4,8 °C 5,4 °C 5,5 km/h (1 Bft)
02.04.2026 09:00 5,8 °C 47 % 1012,9 hPa 0,0 l/m² 4,4 km/h (1 Bft) NW 0,00 h -4,6 °C 5,6 °C 6,4 km/h (2 Bft)
02.04.2026 10:00 5,9 °C 48 % 1013,0 hPa 0,0 l/m² 3,2 km/h (1 Bft) W 0,00 h -4,3 °C 5,9 °C 4,7 km/h (1 Bft)
02.04.2026 11:00 6,0 °C 48 % 1013,0 hPa 0,0 l/m² 3,7 km/h (1 Bft) W-NW 0,00 h -4,1 °C 6,0 °C 5,5 km/h (1 Bft)
02.04.2026 12:00 6,6 °C 47 % 1012,4 hPa 0,0 l/m² 4,8 km/h (1 Bft) O 0,00 h -3,9 °C 6,1 °C 7,0 km/h (2 Bft)
02.04.2026 13:00 7,1 °C 46 % 1011,9 hPa 0,0 l/m² 5,0 km/h (1 Bft) NW 0,00 h -3,9 °C 6,6 °C 7,0 km/h (2 Bft)
02.04.2026 14:00 7,9 °C 44 % 1011,7 hPa 0,0 l/m² 4,7 km/h (1 Bft) W 0,00 h -3,5 °C 7,6 °C 7,0 km/h (2 Bft)
02.04.2026 15:00 8,7 °C 42 % 1011,2 hPa 0,0 l/m² 5,3 km/h (1 Bft) NW 0,00 h -3,6 °C 8,2 °C 7,8 km/h (2 Bft)
02.04.2026 16:00 8,6 °C 41 % 1010,8 hPa 0,0 l/m² 4,7 km/h (1 Bft) W-NW 0,00 h -3,9 °C 8,3 °C 6,0 km/h (2 Bft)
02.04.2026 17:00 8,6 °C 40 % 1010,8 hPa 0,0 l/m² 4,7 km/h (1 Bft) N-NW 0,00 h -4,2 °C 8,3 °C 7,0 km/h (2 Bft)
02.04.2026 18:00 8,3 °C 40 % 1011,0 hPa 0,0 l/m² 5,7 km/h (1 Bft) NW 0,00 h -4,5 °C 7,6 °C 7,1 km/h (2 Bft)
02.04.2026 19:00 8,0 °C 40 % 1010,8 hPa 0,0 l/m² 5,7 km/h (1 Bft) NW 0,00 h -4,7 °C 7,3 °C 7,5 km/h (2 Bft)
02.04.2026 20:00 8,1 °C 40 % 1011,9 hPa 0,0 l/m² 5,2 km/h (1 Bft) W 0,00 h -4,7 °C 7,5 °C 6,7 km/h (2 Bft)
02.04.2026 21:00 8,4 °C 40 % 1012,4 hPa 0,0 l/m² 4,6 km/h (1 Bft) NW 0,00 h -4,5 °C 8,2 °C 5,9 km/h (2 Bft)
02.04.2026 22:00 8,6 °C 39 % 1013,0 hPa 0,0 l/m² 4,0 km/h (1 Bft) NW 0,00 h -4,5 °C 8,5 °C 5,7 km/h (1 Bft)
02.04.2026 23:00 8,5 °C 38 % 1012,9 hPa 0,0 l/m² 3,8 km/h (1 Bft) NW 0,00 h -5,0 °C 8,5 °C 5,0 km/h (1 Bft)
03.04.2026 00:00 8,3 °C 39 % 1012,9 hPa 0,0 l/m² 4,2 km/h (1 Bft) O 0,00 h -4,8 °C 8,2 °C 5,0 km/h (1 Bft)
03.04.2026 01:00 8,2 °C 39 % 1012,9 hPa 0,0 l/m² 4,0 km/h (1 Bft) N-NO 0,00 h -4,8 °C 8,2 °C 5,8 km/h (2 Bft)
03.04.2026 02:00 8,1 °C 40 % 1012,6 hPa 0,0 l/m² 3,8 km/h (1 Bft) NW 0,00 h -4,7 °C 8,1 °C 4,8 km/h (1 Bft)
03.04.2026 03:00 7,9 °C 40 % 1012,6 hPa 0,0 l/m² 3,9 km/h (1 Bft) NW 0,00 h -4,8 °C 7,9 °C 6,0 km/h (2 Bft)
03.04.2026 04:00 7,8 °C 40 % 1012,8 hPa 0,0 l/m² 4,4 km/h (1 Bft) NW 0,00 h -4,9 °C 7,6 °C 6,1 km/h (2 Bft)
03.04.2026 05:00 7,6 °C 40 % 1012,7 hPa 0,0 l/m² 4,4 km/h (1 Bft) W 0,00 h -5,1 °C 7,5 °C 5,7 km/h (1 Bft)
03.04.2026 06:00 7,4 °C 41 % 1012,9 hPa 0,0 l/m² 3,8 km/h (1 Bft) S-SO 0,00 h -5,1 °C 7,4 °C 5,3 km/h (1 Bft)
03.04.2026 07:00 7,5 °C 41 % 1013,8 hPa 0,0 l/m² 4,3 km/h (1 Bft) NW 0,00 h -4,9 °C 7,3 °C 5,5 km/h (1 Bft)
03.04.2026 08:00 8,4 °C 41 % 1014,8 hPa 0,0 l/m² 4,8 km/h (1 Bft) W 0,00 h -4,1 °C 8,1 °C 7,2 km/h (2 Bft)
03.04.2026 09:00 9,8 °C 40 % 1015,5 hPa 0,0 l/m² 3,5 km/h (1 Bft) O-SO 0,00 h -3,3 °C 9,8 °C 5,0 km/h (1 Bft)
03.04.2026 10:00 11,0 °C 37 % 1015,7 hPa 0,0 l/m² 3,2 km/h (1 Bft) SW 0,00 h -3,2 °C 11,0 °C 4,2 km/h (1 Bft)
03.04.2026 11:00 12,7 °C 34 % 1015,8 hPa 0,0 l/m² 4,0 km/h (1 Bft) S 0,00 h -2,9 °C 12,7 °C 6,0 km/h (2 Bft)
03.04.2026 12:00 14,0 °C 31 % 1015,8 hPa 0,0 l/m² 5,4 km/h (1 Bft) W 0,00 h -2,9 °C 14,0 °C 6,4 km/h (2 Bft)
03.04.2026 13:00 15,0 °C 30 % 1015,6 hPa 0,0 l/m² 5,0 km/h (1 Bft) SW 0,75 h -2,3 °C 15,0 °C 5,6 km/h (1 Bft)
03.04.2026 14:00 15,7 °C 30 % 1015,4 hPa 0,0 l/m² 5,1 km/h (1 Bft) NW 1,00 h -2,0 °C 15,7 °C 7,3 km/h (2 Bft)
03.04.2026 15:00 16,2 °C 29 % 1015,6 hPa 0,0 l/m² 3,9 km/h (1 Bft) W-SW 1,00 h -1,9 °C 16,2 °C 4,6 km/h (1 Bft)
03.04.2026 16:00 15,5 °C 28 % 1015,3 hPa 0,0 l/m² 4,1 km/h (1 Bft) W-SW 0,75 h -3,0 °C 15,5 °C 6,5 km/h (2 Bft)
03.04.2026 17:00 15,4 °C 26 % 1015,1 hPa 0,0 l/m² 3,2 km/h (1 Bft) SW 0,67 h -3,8 °C 15,4 °C 5,2 km/h (1 Bft)
03.04.2026 18:00 13,9 °C 25 % 1015,7 hPa 0,0 l/m² 3,5 km/h (1 Bft) SO 0,08 h -5,6 °C 13,9 °C 4,9 km/h (1 Bft)
03.04.2026 19:00 12,4 °C 25 % 1016,2 hPa 0,0 l/m² 1,4 km/h (1 Bft) N-NO 0,00 h -7,1 °C 12,4 °C 2,6 km/h (1 Bft)
03.04.2026 20:00 11,2 °C 26 % 1016,4 hPa 0,0 l/m² 1,3 km/h (1 Bft) NW 0,00 h -7,8 °C 11,2 °C 2,8 km/h (1 Bft)
03.04.2026 21:00 10,6 °C 26 % 1017,4 hPa 0,0 l/m² 1,3 km/h (1 Bft) N-NO 0,00 h -8,0 °C 10,6 °C 2,1 km/h (1 Bft)
03.04.2026 22:00 10,4 °C 28 % 1017,6 hPa 0,0 l/m² 2,2 km/h (1 Bft) S-SW 0,00 h -7,4 °C 10,4 °C 4,0 km/h (1 Bft)
03.04.2026 23:00 10,1 °C 28 % 1018,0 hPa 0,0 l/m² 1,0 km/h (0 Bft) NW 0,00 h -7,6 °C 10,1 °C 1,9 km/h (1 Bft)
04.04.2026 00:00 9,3 °C 29 % 1017,8 hPa 0,0 l/m² 0,3 km/h (0 Bft) N 0,00 h -7,9 °C 9,3 °C 0,6 km/h (0 Bft)
04.04.2026 01:00 7,6 °C 29 % 1018,0 hPa 0,0 l/m² 0,0 km/h (0 Bft) N 0,00 h -9,1 °C 7,6 °C 0,0 km/h (0 Bft)
04.04.2026 02:00 7,0 °C 31 % 1017,8 hPa 0,0 l/m² 0,0 km/h (0 Bft) N 0,00 h -8,8 °C 7,0 °C 0,0 km/h (0 Bft)
04.04.2026 03:00 7,4 °C 33 % 1017,5 hPa 0,0 l/m² 0,1 km/h (0 Bft) N 0,00 h -7,7 °C 7,4 °C 0,4 km/h (0 Bft)
04.04.2026 04:00 8,9 °C 34 % 1017,2 hPa 0,0 l/m² 0,3 km/h (0 Bft) N 0,00 h -6,0 °C 8,9 °C 0,6 km/h (0 Bft)
04.04.2026 05:00 9,3 °C 35 % 1017,6 hPa 0,0 l/m² 0,2 km/h (0 Bft) N 0,00 h -5,5 °C 9,3 °C 0,5 km/h (0 Bft)
04.04.2026 06:00 8,7 °C 35 % 1018,0 hPa 0,0 l/m² 0,2 km/h (0 Bft) N 0,00 h -5,7 °C 8,7 °C 0,6 km/h (0 Bft)
04.04.2026 07:00 9,7 °C 37 % 1018,3 hPa 0,0 l/m² 0,1 km/h (0 Bft) N 0,00 h -4,3 °C 9,7 °C 0,1 km/h (0 Bft)
04.04.2026 08:00 11,7 °C 37 % 1018,7 hPa 0,0 l/m² 1,0 km/h (0 Bft) O-SO 0,00 h -2,7 °C 11,7 °C 1,4 km/h (1 Bft)
04.04.2026 09:00 14,3 °C 34 % 1019,3 hPa 0,0 l/m² 1,9 km/h (1 Bft) W-SW 0,00 h -1,5 °C 14,3 °C 2,6 km/h (1 Bft)
04.04.2026 10:00 14,6 °C 34 % 1020,1 hPa 0,0 l/m² 2,3 km/h (1 Bft) N-NW 0,00 h -1,0 °C 14,6 °C 3,8 km/h (1 Bft)
04.04.2026 11:00 14,0 °C 36 % 1020,8 hPa 0,0 l/m² 3,8 km/h (1 Bft) N-NO 0,00 h -0,7 °C 14,0 °C 5,6 km/h (1 Bft)
04.04.2026 12:00 13,8 °C 39 % 1020,8 hPa 0,0 l/m² 5,0 km/h (1 Bft) NW 0,00 h 0,1 °C 13,8 °C 7,3 km/h (2 Bft)
04.04.2026 13:00 14,6 °C 40 % 1021,1 hPa 0,0 l/m² 5,1 km/h (1 Bft) W-NW 0,00 h 1,0 °C 14,6 °C 6,3 km/h (2 Bft)
04.04.2026 14:00 13,8 °C 41 % 1020,9 hPa 0,0 l/m² 4,2 km/h (1 Bft) W-SW 0,00 h 0,8 °C 13,8 °C 5,9 km/h (2 Bft)
04.04.2026 15:00 13,6 °C 42 % 1021,3 hPa 0,0 l/m² 4,0 km/h (1 Bft) NO 0,00 h 1,0 °C 13,6 °C 5,2 km/h (1 Bft)
04.04.2026 16:00 14,8 °C 42 % 1020,9 hPa 0,0 l/m² 5,0 km/h (1 Bft) N-NW 0,60 h 2,0 °C 14,8 °C 7,2 km/h (2 Bft)
04.04.2026 17:00 14,8 °C 42 % 1021,7 hPa 0,0 l/m² 4,5 km/h (1 Bft) NW 0,77 h 2,0 °C 14,8 °C 5,6 km/h (1 Bft)
04.04.2026 18:00 13,5 °C 44 % 1022,0 hPa 0,0 l/m² 3,0 km/h (1 Bft) W 0,00 h 1,4 °C 13,5 °C 4,6 km/h (1 Bft)
04.04.2026 19:00 12,7 °C 46 % 1021,9 hPa 0,0 l/m² 3,7 km/h (1 Bft) N-NO 0,00 h 1,4 °C 12,7 °C 5,1 km/h (1 Bft)
04.04.2026 20:00 12,3 °C 48 % 1022,4 hPa 0,0 l/m² 2,7 km/h (1 Bft) NW 0,00 h 1,6 °C 12,3 °C 3,9 km/h (1 Bft)
04.04.2026 21:00 12,1 °C 49 % 1022,6 hPa 0,0 l/m² 1,5 km/h (1 Bft) W 0,00 h 1,7 °C 12,1 °C 2,6 km/h (1 Bft)
04.04.2026 22:00 12,0 °C 50 % 1022,6 hPa 0,0 l/m² 0,8 km/h (0 Bft) NO 0,00 h 1,8 °C 12,0 °C 1,4 km/h (1 Bft)
04.04.2026 23:00 12,3 °C 50 % 1022,7 hPa 0,0 l/m² 1,3 km/h (1 Bft) N-NO 0,00 h 2,2 °C 12,3 °C 2,2 km/h (1 Bft)
05.04.2026 00:00 12,6 °C 50 % 1022,5 hPa 0,0 l/m² 1,8 km/h (1 Bft) NO 0,00 h 2,5 °C 12,6 °C 2,7 km/h (1 Bft)
05.04.2026 01:00 12,8 °C 50 % 1022,6 hPa 0,0 l/m² 0,4 km/h (0 Bft) N 0,00 h 2,6 °C 12,8 °C 0,6 km/h (0 Bft)
05.04.2026 02:00 12,7 °C 50 % 1022,7 hPa 0,0 l/m² 0,4 km/h (0 Bft) N 0,00 h 2,5 °C 12,7 °C 0,8 km/h (0 Bft)
05.04.2026 03:00 12,6 °C 49 % 1022,4 hPa 0,0 l/m² 0,3 km/h (0 Bft) N 0,00 h 2,2 °C 12,6 °C 0,2 km/h (0 Bft)
05.04.2026 04:00 11,8 °C 49 % 1022,2 hPa 0,0 l/m² 0,1 km/h (0 Bft) N 0,00 h 1,4 °C 11,8 °C 0,1 km/h (0 Bft)
05.04.2026 05:00 11,1 °C 50 % 1022,0 hPa 0,0 l/m² 0,5 km/h (0 Bft) NO 0,00 h 1,0 °C 11,1 °C 1,0 km/h (0 Bft)
05.04.2026 06:00 11,1 °C 49 % 1022,0 hPa 0,0 l/m² 0,2 km/h (0 Bft) N 0,00 h 0,9 °C 11,1 °C 0,8 km/h (0 Bft)
05.04.2026 07:00 12,3 °C 49 % 1022,0 hPa 0,0 l/m² 0,4 km/h (0 Bft) W-SW 0,00 h 1,8 °C 12,3 °C 1,1 km/h (0 Bft)
05.04.2026 08:00 14,2 °C 47 % 1022,3 hPa 0,0 l/m² 1,0 km/h (0 Bft) N-NO 0,00 h 2,9 °C 14,2 °C 1,2 km/h (1 Bft)
05.04.2026 09:00 15,7 °C 46 % 1022,4 hPa 0,0 l/m² 1,0 km/h (0 Bft) W-NW 0,00 h 4,2 °C 15,7 °C 1,6 km/h (1 Bft)
05.04.2026 10:00 17,2 °C 47 % 1022,4 hPa 0,0 l/m² 0,6 km/h (0 Bft) O-NO 0,00 h 5,7 °C 17,2 °C 0,7 km/h (0 Bft)
05.04.2026 11:00 19,5 °C 45 % 1022,4 hPa 0,0 l/m² 1,1 km/h (1 Bft) W 0,00 h 7,1 °C 19,5 °C 1,4 km/h (1 Bft)
05.04.2026 12:00 21,8 °C 42 % 1021,6 hPa 0,0 l/m² 1,4 km/h (1 Bft) W-SW 0,00 h 8,2 °C 21,8 °C 2,4 km/h (1 Bft)
05.04.2026 13:00 23,9 °C 38 % 1020,8 hPa 0,0 l/m² 1,7 km/h (1 Bft) W-SW 0,67 h 8,6 °C 23,9 °C 2,3 km/h (1 Bft)
05.04.2026 14:00 25,2 °C 35 % 1020,8 hPa 0,0 l/m² 2,0 km/h (1 Bft) NW 1,00 h 8,8 °C 25,2 °C 3,9 km/h (1 Bft)
05.04.2026 15:00 25,9 °C 33 % 1020,1 hPa 0,0 l/m² 2,1 km/h (1 Bft) W-SW 1,00 h 8,4 °C 25,9 °C 2,7 km/h (1 Bft)
05.04.2026 16:00 26,2 °C 32 % 1019,9 hPa 0,0 l/m² 1,6 km/h (1 Bft) W-SW 1,00 h 8,2 °C 26,2 °C 2,3 km/h (1 Bft)
05.04.2026 17:00 26,2 °C 26 % 1020,1 hPa 0,0 l/m² 2,6 km/h (1 Bft) SW 1,00 h 5,2 °C 26,2 °C 3,7 km/h (1 Bft)
05.04.2026 18:00 24,4 °C 25 % 1019,9 hPa 0,0 l/m² 0,6 km/h (0 Bft) O-SO 0,20 h 3,2 °C 24,4 °C 0,7 km/h (0 Bft)
05.04.2026 19:00 21,4 °C 25 % 1019,5 hPa 0,0 l/m² 0,2 km/h (0 Bft) N 0,00 h 0,8 °C 21,4 °C 0,2 km/h (0 Bft)
05.04.2026 20:00 20,6 °C 29 % 1020,2 hPa 0,0 l/m² 2,1 km/h (1 Bft) W 0,00 h 1,8 °C 20,6 °C 3,3 km/h (1 Bft)
05.04.2026 21:00 20,7 °C 29 % 1020,5 hPa 0,0 l/m² 3,5 km/h (1 Bft) NW 0,00 h 2,0 °C 20,7 °C 4,9 km/h (1 Bft)
05.04.2026 22:00 20,0 °C 29 % 1021,1 hPa 0,0 l/m² 2,7 km/h (1 Bft) NW 0,00 h 1,6 °C 20,0 °C 3,7 km/h (1 Bft)
05.04.2026 23:00 18,9 °C 31 % 1021,6 hPa 0,0 l/m² 2,4 km/h (1 Bft) NW 0,00 h 1,2 °C 18,9 °C 3,3 km/h (1 Bft)
Min-Datum _ 31.03.26 03.04.26 02.04.26 - 04.04.26 - - 04.04.26 31.03.26 30.03.26
_ Min-Zeit 08:10 18:12 19:34 - 00:47 - - 02:02 09:22 00:00
Minimum _ 3,3 °C 25 % 1010,3 hPa - 0,0 km/h (0 Bft) - - -9,4 °C 2,5 °C 0,0 km/h (0 Bft)
Max-Datum _ 05.04.26 31.03.26 05.04.26 30.03.26 30.03.26 - 03.04.26 05.04.26 05.04.26 31.03.26
_ Max-Zeit 17:00 10:20 02:54 00:00 13:10 - 13:17 14:00 17:00 11:22
Maximum _ 26,5 °C 59 % 1023,2 hPa 0,0 l/m² 6,9 km/h
NW (2 Bft)
- 0,08 h 9,9 °C 26,5 °C 24,6 km/h
NW (4 Bft)
Durchschnitt _ 9,7 °C 40 % 1017,5 hPa #0,0 l/m² 2,8 km/h (1 Bft) NW #15:21 h -3,6 °C 9,6 °C 4,1 km/h (1 Bft)